Bayankhongor Airport


Codes: ZMBH/BYN
Name: Bayankhongor Airport
City: Bayankhongor
Country: Mongolia
Elevation: 6085 ft.
Wikipedia:

Photos at Bayankhongor Airport


   Photos courtesy of SpottingLog. You can add your own sightings and photos by signing up for a free trial today.



No photos found.

Weather at Bayankhongor Airport


Time (UTC)DescriptionTempratureWindCloud coverageVisibilityPressureHumidity
21-Jun-2024 12:00Clear Sky17°C13 mph, N2%10000m1006hPa19%
21-Jun-2024 15:00Clear Sky14°C7 mph, NW1%10000m1008hPa26%
21-Jun-2024 18:00Clear Sky10°C7 mph, N0%10000m1011hPa36%
21-Jun-2024 21:00Clear Sky9°C7 mph, NW0%10000m1011hPa39%
22-Jun-2024 00:00Clear Sky11°C7 mph, NW0%10000m1011hPa35%
22-Jun-2024 03:00Scattered Clouds17°C13 mph, N26%10000m1008hPa18%
22-Jun-2024 06:00Broken Clouds20°C11 mph, N54%10000m1007hPa15%
22-Jun-2024 09:00Scattered Clouds21°C13 mph, N36%10000m1006hPa16%
22-Jun-2024 12:00Scattered Clouds18°C13 mph, NE42%10000m1009hPa23%
22-Jun-2024 15:00Broken Clouds14°C7 mph, NE81%10000m1013hPa34%
22-Jun-2024 18:00Scattered Clouds10°C4 mph, NE50%10000m1015hPa41%
22-Jun-2024 21:00Clear Sky9°C7 mph, NE0%10000m1017hPa41%
23-Jun-2024 00:00Clear Sky12°C4 mph, NE0%10000m1017hPa33%
23-Jun-2024 03:00Clear Sky17°C4 mph, SW0%10000m1015hPa24%
23-Jun-2024 06:00Clear Sky21°C9 mph, SW0%10000m1012hPa23%
23-Jun-2024 09:00Few Clouds22°C9 mph, SW13%10000m1011hPa24%
23-Jun-2024 12:00Scattered Clouds21°C9 mph, SW31%10000m1011hPa27%
23-Jun-2024 15:00Broken Clouds17°C4 mph, S81%10000m1013hPa38%
23-Jun-2024 18:00Light Rain15°C2 mph, SE91%10000m1014hPa50%
23-Jun-2024 21:00Light Rain14°C4 mph, NE100%10000m1014hPa59%
24-Jun-2024 00:00Broken Clouds16°C2 mph, E80%10000m1013hPa46%
24-Jun-2024 03:00Clear Sky20°C7 mph, SW4%10000m1011hPa31%
24-Jun-2024 06:00Scattered Clouds24°C9 mph, SW40%10000m1008hPa25%
24-Jun-2024 09:00Broken Clouds26°C13 mph, SW68%10000m1004hPa21%
24-Jun-2024 12:00Broken Clouds21°C11 mph, NE80%10000m1006hPa37%
24-Jun-2024 15:00Overcast Clouds18°C7 mph, NE100%10000m1007hPa50%
24-Jun-2024 18:00Light Rain17°C9 mph, N100%10000m1009hPa57%
24-Jun-2024 21:00Overcast Clouds15°C11 mph, N100%10000m1009hPa60%
25-Jun-2024 00:00Light Rain14°C16 mph, N100%10000m1009hPa69%
25-Jun-2024 03:00Overcast Clouds22°C20 mph, W99%10000m1006hPa37%
25-Jun-2024 06:00Overcast Clouds24°C18 mph, W100%10000m1004hPa30%
25-Jun-2024 09:00Light Rain24°C18 mph, W95%10000m1003hPa32%
25-Jun-2024 12:00Overcast Clouds22°C9 mph, N85%10000m1003hPa37%
25-Jun-2024 15:00Light Rain19°C2 mph, NE91%10000m1005hPa46%
25-Jun-2024 18:00Overcast Clouds15°C2 mph, NE86%10000m1007hPa60%
25-Jun-2024 21:00Few Clouds14°C2 mph, NE19%10000m1007hPa65%
26-Jun-2024 00:00Clear Sky17°C4 mph, N8%10000m1007hPa51%
26-Jun-2024 03:00Clear Sky22°C4 mph, NW0%10000m1005hPa30%
26-Jun-2024 06:00Clear Sky26°C9 mph, W0%10000m1003hPa19%
26-Jun-2024 09:00Clear Sky27°C11 mph, NW0%10000m1001hPa16%